sensor_id;sensor_type;location;lat;lon;timestamp;temperature;humidity
47857;DHT22;33618;49.972;8.242;2023-08-08T00:01:49;16.20;95.80
47857;DHT22;33618;49.972;8.242;2023-08-08T00:04:16;16.10;96.00
47857;DHT22;33618;49.972;8.242;2023-08-08T00:06:43;16.00;96.20
47857;DHT22;33618;49.972;8.242;2023-08-08T00:09:09;16.00;96.20
47857;DHT22;33618;49.972;8.242;2023-08-08T00:11:36;16.00;96.50
47857;DHT22;33618;49.972;8.242;2023-08-08T00:14:03;16.00;96.70
47857;DHT22;33618;49.972;8.242;2023-08-08T00:16:30;16.00;96.70
47857;DHT22;33618;49.972;8.242;2023-08-08T00:18:57;15.90;97.10
47857;DHT22;33618;49.972;8.242;2023-08-08T00:21:24;15.90;97.10
47857;DHT22;33618;49.972;8.242;2023-08-08T22:34:19;15.30;99.90
47857;DHT22;33618;49.972;8.242;2023-08-08T22:36:46;15.30;99.90
47857;DHT22;33618;49.972;8.242;2023-08-08T22:39:13;15.40;99.90
47857;DHT22;33618;49.972;8.242;2023-08-08T22:41:40;15.30;99.90
47857;DHT22;33618;49.972;8.242;2023-08-08T22:44:07;15.30;99.90
47857;DHT22;33618;49.972;8.242;2023-08-08T22:46:34;15.30;99.90
47857;DHT22;33618;49.972;8.242;2023-08-08T22:49:01;15.20;99.90
47857;DHT22;33618;49.972;8.242;2023-08-08T22:51:28;15.30;99.90
47857;DHT22;33618;49.972;8.242;2023-08-08T22:53:55;15.30;99.90
47857;DHT22;33618;49.972;8.242;2023-08-08T22:56:22;15.20;99.90
47857;DHT22;33618;49.972;8.242;2023-08-08T22:58:49;15.30;99.90
47857;DHT22;33618;49.972;8.242;2023-08-08T23:01:16;15.30;99.90
47857;DHT22;33618;49.972;8.242;2023-08-08T23:03:42;15.30;99.90
47857;DHT22;33618;49.972;8.242;2023-08-08T23:06:10;15.30;99.90
47857;DHT22;33618;49.972;8.242;2023-08-08T23:08:37;15.30;99.90
47857;DHT22;33618;49.972;8.242;2023-08-08T23:11:03;15.30;99.90
47857;DHT22;33618;49.972;8.242;2023-08-08T23:13:30;15.30;99.90
47857;DHT22;33618;49.972;8.242;2023-08-08T23:15:57;15.40;99.90
47857;DHT22;33618;49.972;8.242;2023-08-08T23:18:24;15.30;99.90
47857;DHT22;33618;49.972;8.242;2023-08-08T23:20:51;15.30;99.90
47857;DHT22;33618;49.972;8.242;2023-08-08T23:23:18;15.30;99.90
47857;DHT22;33618;49.972;8.242;2023-08-08T23:25:45;15.40;99.90
47857;DHT22;33618;49.972;8.242;2023-08-08T23:28:12;15.30;99.90
47857;DHT22;33618;49.972;8.242;2023-08-08T23:30:39;15.40;99.90
47857;DHT22;33618;49.972;8.242;2023-08-08T23:33:06;15.40;99.90
47857;DHT22;33618;49.972;8.242;2023-08-08T23:35:33;15.40;99.90
47857;DHT22;33618;49.972;8.242;2023-08-08T23:38:00;15.30;99.90
47857;DHT22;33618;49.972;8.242;2023-08-08T23:40:27;15.40;99.90
47857;DHT22;33618;49.972;8.242;2023-08-08T23:42:54;15.40;99.90
47857;DHT22;33618;49.972;8.242;2023-08-08T23:45:21;15.40;99.90
47857;DHT22;33618;49.972;8.242;2023-08-08T23:47:48;15.40;99.90
47857;DHT22;33618;49.972;8.242;2023-08-08T23:50:15;15.40;99.90
47857;DHT22;33618;49.972;8.242;2023-08-08T23:52:42;15.40;99.90
47857;DHT22;33618;49.972;8.242;2023-08-08T23:55:09;15.40;99.90
47857;DHT22;33618;49.972;8.242;2023-08-08T23:57:36;15.50;99.90
